createdAt,value
2018-03-03T00:01:46.314Z,5.55
2018-03-03T00:04:13.931Z,9.30
2018-03-03T00:06:41.504Z,8.35
2018-03-03T00:09:09.108Z,8.35
2018-03-03T00:11:36.717Z,6.43
2018-03-03T00:14:04.292Z,9.38
2018-03-03T00:16:32.192Z,8.70
2018-03-03T00:18:59.783Z,8.90
2018-03-03T00:21:27.623Z,9.98
2018-03-03T00:23:55.248Z,7.57
2018-03-03T00:26:22.882Z,8.80
2018-03-03T00:28:50.505Z,7.60
2018-03-03T00:31:18.098Z,9.10
2018-03-03T00:33:45.711Z,7.50
2018-03-03T00:36:13.362Z,7.47
2018-03-03T00:38:40.932Z,7.10
2018-03-03T00:41:08.548Z,10.30
2018-03-03T00:43:36.247Z,9.35
2018-03-03T00:46:04.242Z,7.60
2018-03-03T00:48:31.883Z,10.32
2018-03-03T00:50:59.492Z,9.35
2018-03-03T00:53:27.326Z,9.05
2018-03-03T00:55:54.925Z,5.18
2018-03-03T00:58:22.555Z,8.13
2018-03-03T01:00:50.339Z,10.02
2018-03-03T01:03:17.924Z,8.55
2018-03-03T01:05:45.527Z,7.55
2018-03-03T01:08:13.132Z,9.70
2018-03-03T01:10:40.791Z,10.38
2018-03-03T01:13:08.362Z,8.27
2018-03-03T01:15:35.966Z,12.60
2018-03-03T01:18:03.639Z,8.35
2018-03-03T01:20:31.531Z,9.93
2018-03-03T01:22:59.155Z,10.30
2018-03-03T01:25:26.770Z,8.90
2018-03-03T01:27:54.598Z,7.28
2018-03-03T01:30:22.258Z,9.40
2018-03-03T01:32:49.823Z,8.68
2018-03-03T01:35:17.438Z,10.15
2018-03-03T01:37:44.998Z,10.32
2018-03-03T01:40:12.916Z,9.45
2018-03-03T01:42:40.556Z,7.03
2018-03-03T01:45:08.137Z,10.65
2018-03-03T01:47:35.832Z,12.18
2018-03-03T01:50:03.446Z,8.60
2018-03-03T01:52:31.168Z,10.73
2018-03-03T01:54:58.749Z,10.07
2018-03-03T01:57:26.381Z,10.00
2018-03-03T01:59:54.087Z,9.65
2018-03-03T02:02:21.924Z,9.98
2018-03-03T02:04:49.588Z,9.80
2018-03-03T02:07:17.161Z,10.63
2018-03-03T02:09:44.731Z,11.70
2018-03-03T02:12:12.349Z,10.93
2018-03-03T02:14:40.290Z,10.32
2018-03-03T02:17:07.949Z,9.82
2018-03-03T02:19:35.577Z,10.30
2018-03-03T02:22:03.242Z,7.78
2018-03-03T02:24:30.845Z,11.90
2018-03-03T02:26:58.513Z,9.98
2018-03-03T02:29:26.285Z,9.60
2018-03-03T02:31:53.893Z,10.45
2018-03-03T02:34:21.503Z,10.30
2018-03-03T02:36:49.092Z,12.00
2018-03-03T02:39:17.005Z,11.95
2018-03-03T02:41:44.643Z,7.97
2018-03-03T02:44:12.653Z,10.88
2018-03-03T02:46:40.213Z,9.13
2018-03-03T02:49:07.922Z,9.00
2018-03-03T02:51:35.674Z,9.40
2018-03-03T02:54:03.564Z,8.25
2018-03-03T02:56:31.194Z,10.50
2018-03-03T02:58:59.234Z,10.25
2018-03-03T03:01:26.804Z,9.18
2018-03-03T03:03:54.413Z,10.80
2018-03-03T03:06:22.035Z,11.80
2018-03-03T03:08:49.681Z,9.90
2018-03-03T03:11:17.494Z,10.77
2018-03-03T03:13:45.088Z,10.07
2018-03-03T03:16:12.682Z,9.55
2018-03-03T03:18:40.304Z,10.38
2018-03-03T03:21:07.894Z,11.35
2018-03-03T03:23:35.505Z,10.55
2018-03-03T03:26:03.258Z,7.93
2018-03-03T03:28:30.938Z,9.43
2018-03-03T03:30:58.849Z,10.70
2018-03-03T03:33:26.461Z,10.30
2018-03-03T03:35:54.079Z,8.00
2018-03-03T03:38:21.717Z,11.27
2018-03-03T03:40:49.328Z,10.50
2018-03-03T03:43:16.981Z,11.07
2018-03-03T03:45:44.620Z,12.73
2018-03-03T03:48:12.272Z,8.38
2018-03-03T03:50:40.140Z,9.40
2018-03-03T03:53:07.776Z,9.32
2018-03-03T03:55:36.292Z,10.90
2018-03-03T03:58:03.874Z,12.93
2018-03-03T04:00:31.489Z,11.05
2018-03-03T04:02:59.090Z,9.77
2018-03-03T04:05:26.977Z,11.73
2018-03-03T04:07:54.606Z,11.40
2018-03-03T04:10:22.180Z,8.07
2018-03-03T04:12:49.756Z,9.15
2018-03-03T04:15:17.409Z,8.70
2018-03-03T04:17:44.991Z,11.95
2018-03-03T04:20:12.686Z,7.87
2018-03-03T04:22:40.675Z,12.05
2018-03-03T04:25:08.362Z,9.38
2018-03-03T04:27:35.998Z,9.00
2018-03-03T04:30:04.068Z,11.38
2018-03-03T04:32:31.970Z,6.85
2018-03-03T04:34:59.662Z,10.48
2018-03-03T04:37:27.377Z,10.10
2018-03-03T04:39:55.060Z,9.90
2018-03-03T04:42:22.673Z,8.32
2018-03-03T04:44:50.393Z,13.55
2018-03-03T04:47:17.995Z,10.30
2018-03-03T04:49:45.670Z,11.40
2018-03-03T04:52:13.429Z,11.73
2018-03-03T04:54:41.036Z,6.82
2018-03-03T04:57:08.873Z,10.75
2018-03-03T05:02:49.446Z,9.50
2018-03-03T05:05:32.808Z,11.02
2018-03-03T05:11:03.483Z,10.25
2018-03-03T05:13:46.884Z,7.47
2018-03-03T05:16:18.026Z,9.52
2018-03-03T05:18:51.094Z,10.95
2018-03-03T05:21:24.319Z,10.38
2018-03-03T05:23:57.436Z,7.95
2018-03-03T05:26:30.768Z,9.27
2018-03-03T05:32:21.083Z,10.43
2018-03-03T05:34:54.225Z,11.50
2018-03-03T05:40:46.742Z,11.15
2018-03-03T05:43:20.120Z,8.50
2018-03-03T05:49:11.472Z,11.93
2018-03-03T05:51:44.696Z,9.10
2018-03-03T05:54:18.077Z,12.07
2018-03-03T06:00:09.506Z,6.93
2018-03-03T06:02:37.777Z,10.75
2018-03-03T06:05:11.091Z,8.05
2018-03-03T06:07:44.403Z,11.38
2018-03-03T06:10:28.751Z,9.98
2018-03-03T06:12:56.392Z,9.00
2018-03-03T06:15:23.981Z,9.13
2018-03-03T06:17:51.554Z,10.73
2018-03-03T06:20:19.144Z,9.77
2018-03-03T06:22:46.776Z,10.40
2018-03-03T06:25:14.420Z,10.38
2018-03-03T06:27:42.025Z,10.07
2018-03-03T06:30:09.724Z,8.65
2018-03-03T06:32:37.317Z,11.52
2018-03-03T06:35:04.895Z,10.95
2018-03-03T06:37:32.522Z,8.02
2018-03-03T06:40:00.112Z,7.68
2018-03-03T06:42:27.676Z,5.57
2018-03-03T06:44:55.522Z,11.15
2018-03-03T06:47:23.104Z,10.98
2018-03-03T06:49:50.735Z,9.75
2018-03-03T06:52:18.319Z,10.80
2018-03-03T06:54:45.945Z,9.15
2018-03-03T06:57:13.548Z,7.97
2018-03-03T06:59:41.113Z,10.63
2018-03-03T07:02:08.956Z,11.05
2018-03-03T07:04:36.530Z,11.73
2018-03-03T07:07:04.100Z,8.98
2018-03-03T07:09:32.125Z,10.52
2018-03-03T07:11:59.719Z,8.15
2018-03-03T07:17:35.587Z,13.32
2018-03-03T07:20:03.249Z,10.80
2018-03-03T07:22:30.879Z,10.52
2018-03-03T07:24:58.857Z,10.95
2018-03-03T07:27:26.450Z,9.30
2018-03-03T07:29:54.020Z,12.15
2018-03-03T07:32:21.590Z,13.60
2018-03-03T07:34:49.217Z,10.82
2018-03-03T07:37:16.816Z,12.95
2018-03-03T07:39:44.369Z,10.65
2018-03-03T07:42:11.977Z,8.60
2018-03-03T07:44:39.539Z,11.52
2018-03-03T07:47:07.110Z,13.30
2018-03-03T07:49:34.762Z,11.60
2018-03-03T07:52:02.549Z,12.40
2018-03-03T07:54:30.105Z,12.50
2018-03-03T07:57:09.503Z,11.50
2018-03-03T07:59:37.089Z,14.00
2018-03-03T08:02:04.653Z,10.80
2018-03-03T08:04:32.317Z,11.12
2018-03-03T08:07:00.280Z,12.80
2018-03-03T08:09:27.869Z,12.90
2018-03-03T08:11:55.455Z,12.65
2018-03-03T08:14:23.012Z,10.55
2018-03-03T08:16:50.722Z,11.40
2018-03-03T08:19:18.302Z,11.02
2018-03-03T08:21:45.876Z,11.90
2018-03-03T08:24:13.485Z,9.73
2018-03-03T08:26:41.076Z,13.62
2018-03-03T08:29:08.897Z,10.48
2018-03-03T08:31:36.501Z,9.50
2018-03-03T08:34:04.217Z,9.07
2018-03-03T08:36:31.849Z,13.23
2018-03-03T08:38:59.401Z,17.00
2018-03-03T08:41:27.549Z,12.90
2018-03-03T08:43:55.191Z,13.40
2018-03-03T08:46:22.767Z,14.82
2018-03-03T08:48:50.396Z,12.10
2018-03-03T08:51:17.983Z,11.05
2018-03-03T08:53:45.565Z,13.43
2018-03-03T08:56:13.700Z,16.20
2018-03-03T08:58:41.363Z,11.32
2018-03-03T09:01:08.926Z,10.30
2018-03-03T09:03:36.916Z,14.87
2018-03-03T09:06:04.472Z,14.43
2018-03-03T09:08:32.084Z,16.70
2018-03-03T09:10:59.718Z,12.37
2018-03-03T09:13:27.540Z,15.57
2018-03-03T09:15:55.141Z,12.07
2018-03-03T09:18:22.996Z,14.02
2018-03-03T09:20:50.603Z,13.57
2018-03-03T09:23:18.691Z,13.98
2018-03-03T09:25:46.233Z,13.98
2018-03-03T09:28:13.870Z,15.90
2018-03-03T09:30:41.457Z,14.18
2018-03-03T09:33:09.040Z,14.80
2018-03-03T09:35:36.660Z,12.32
2018-03-03T09:38:04.244Z,15.25
2018-03-03T09:40:31.836Z,14.82
2018-03-03T09:42:59.453Z,15.88
2018-03-03T09:45:27.032Z,15.35
2018-03-03T09:47:55.048Z,14.20
2018-03-03T09:50:22.650Z,14.05
2018-03-03T09:52:50.241Z,15.70
2018-03-03T09:55:17.911Z,14.40
2018-03-03T09:57:45.492Z,16.12
2018-03-03T10:00:13.287Z,11.52
2018-03-03T10:02:40.930Z,13.18
2018-03-03T10:05:08.507Z,18.70
2018-03-03T10:07:36.089Z,18.08
2018-03-03T10:10:03.714Z,15.75
2018-03-03T10:12:31.277Z,16.75
2018-03-03T10:14:58.868Z,18.08
2018-03-03T10:17:26.490Z,16.20
2018-03-03T10:19:54.113Z,18.67
2018-03-03T10:22:22.010Z,11.85
2018-03-03T10:24:49.606Z,16.15
2018-03-03T10:27:17.223Z,17.08
2018-03-03T10:29:44.848Z,17.23
2018-03-03T10:32:12.965Z,16.67
2018-03-03T10:34:40.614Z,17.85
2018-03-03T10:37:08.196Z,12.93
2018-03-03T10:39:35.829Z,16.23
2018-03-03T10:42:03.453Z,17.05
2018-03-03T10:44:31.015Z,18.70
2018-03-03T10:46:58.604Z,17.52
2018-03-03T10:49:26.211Z,18.20
2018-03-03T10:51:53.784Z,17.83
2018-03-03T10:54:21.414Z,15.32
2018-03-03T10:56:49.014Z,16.42
2018-03-03T10:59:16.608Z,18.27
2018-03-03T11:01:44.223Z,17.90
2018-03-03T11:04:11.800Z,21.00
2018-03-03T11:06:39.434Z,19.62
2018-03-03T11:09:07.043Z,20.17
2018-03-03T11:11:34.693Z,18.87
2018-03-03T11:14:02.298Z,18.98
2018-03-03T11:16:29.970Z,19.00
2018-03-03T11:18:57.550Z,20.33
2018-03-03T11:21:25.397Z,20.50
2018-03-03T11:23:53.015Z,21.27
2018-03-03T11:26:20.649Z,20.25
2018-03-03T11:28:48.211Z,16.92
2018-03-03T11:31:15.829Z,17.35
2018-03-03T11:33:43.444Z,19.52
2018-03-03T11:36:11.037Z,18.90
2018-03-03T11:38:38.616Z,19.65
2018-03-03T11:41:06.291Z,14.43
2018-03-03T11:43:33.861Z,19.90
2018-03-03T11:46:01.723Z,21.15
2018-03-03T11:48:29.357Z,21.35
2018-03-03T11:50:56.945Z,20.33
2018-03-03T11:53:24.624Z,19.25
2018-03-03T11:55:52.227Z,17.10
2018-03-03T11:58:19.899Z,20.00
2018-03-03T12:00:47.494Z,21.50
2018-03-03T12:03:15.079Z,22.17
2018-03-03T12:05:42.789Z,18.62
2018-03-03T12:08:10.349Z,19.92
2018-03-03T12:10:37.974Z,20.25
2018-03-03T12:13:05.891Z,19.75
2018-03-03T12:15:33.511Z,19.87
2018-03-03T12:18:01.076Z,19.98
2018-03-03T12:20:28.674Z,18.37
2018-03-03T12:22:56.351Z,20.20
2018-03-03T12:25:23.941Z,22.45
2018-03-03T12:27:51.563Z,21.75
2018-03-03T12:30:19.216Z,19.05
2018-03-03T12:32:46.834Z,19.08
2018-03-03T12:35:14.444Z,19.70
2018-03-03T12:37:42.075Z,20.33
2018-03-03T12:40:09.743Z,22.73
2018-03-03T12:42:37.634Z,22.25
2018-03-03T12:45:05.301Z,21.52
2018-03-03T12:47:32.925Z,24.58
2018-03-03T12:50:00.504Z,22.05
2018-03-03T12:52:28.125Z,23.48
2018-03-03T12:54:55.719Z,22.52
2018-03-03T12:57:23.303Z,24.08
2018-03-03T12:59:50.891Z,20.80
2018-03-03T13:02:18.515Z,24.60
2018-03-03T13:04:46.133Z,22.98
2018-03-03T13:07:13.743Z,22.70
2018-03-03T13:09:41.344Z,21.30
2018-03-03T13:12:08.969Z,23.00
2018-03-03T13:14:36.540Z,24.30
2018-03-03T13:17:04.205Z,22.85
2018-03-03T13:19:31.797Z,20.37
2018-03-03T13:21:59.392Z,22.52
2018-03-03T13:24:26.978Z,25.90
2018-03-03T13:26:54.608Z,23.55
2018-03-03T13:29:22.211Z,20.62
2018-03-03T13:31:49.819Z,22.30
2018-03-03T13:34:17.436Z,20.83
2018-03-03T13:36:45.249Z,20.17
2018-03-03T13:39:12.980Z,21.85
2018-03-03T13:41:40.652Z,21.12
2018-03-03T13:44:08.299Z,22.05
2018-03-03T13:46:35.909Z,22.05
2018-03-03T13:49:03.516Z,18.67
2018-03-03T13:51:31.174Z,22.52
2018-03-03T13:53:58.780Z,23.00
2018-03-03T13:56:26.421Z,21.23
2018-03-03T13:58:54.077Z,24.00
2018-03-03T14:01:21.729Z,21.25
2018-03-03T14:03:49.690Z,21.65
2018-03-03T14:06:17.299Z,22.15
2018-03-03T14:08:44.874Z,18.95
2018-03-03T14:11:12.499Z,23.10
2018-03-03T14:13:40.083Z,22.98
2018-03-03T14:16:07.678Z,21.50
2018-03-03T14:18:35.276Z,22.77
2018-03-03T14:21:02.905Z,22.95
2018-03-03T14:23:30.530Z,23.52
2018-03-03T14:25:58.144Z,21.77
2018-03-03T14:28:25.722Z,19.48
2018-03-03T14:30:53.363Z,22.50
2018-03-03T14:33:20.959Z,20.50
2018-03-03T14:35:48.595Z,21.52
2018-03-03T14:38:16.231Z,21.60
2018-03-03T14:40:43.860Z,21.42
2018-03-03T14:43:11.487Z,25.50
2018-03-03T14:45:39.123Z,24.52
2018-03-03T14:48:06.980Z,21.37
2018-03-03T14:50:35.293Z,23.48
2018-03-03T14:53:02.919Z,28.02
2018-03-03T14:55:30.784Z,24.37
2018-03-03T14:57:58.370Z,24.48
2018-03-03T15:00:25.998Z,23.38
2018-03-03T15:02:53.583Z,24.37
2018-03-03T15:05:21.177Z,22.13
2018-03-03T15:07:48.804Z,23.65
2018-03-03T15:10:16.392Z,23.95
2018-03-03T15:12:44.021Z,23.45
2018-03-03T15:15:11.614Z,22.73
2018-03-03T15:17:39.225Z,24.00
2018-03-03T15:20:06.953Z,22.48
2018-03-03T15:22:34.560Z,23.98
2018-03-03T15:25:02.169Z,23.52
2018-03-03T15:27:29.784Z,22.75
2018-03-03T15:29:57.355Z,19.80
2018-03-03T15:32:27.988Z,22.13
2018-03-03T15:34:55.589Z,23.90
2018-03-03T15:37:23.226Z,25.15
2018-03-03T15:39:50.788Z,24.25
2018-03-03T15:42:18.353Z,23.77
2018-03-03T15:44:45.986Z,23.35
2018-03-03T15:47:13.802Z,22.60
2018-03-03T15:49:41.436Z,22.60
2018-03-03T15:52:09.065Z,22.33
2018-03-03T15:54:36.637Z,21.75
2018-03-03T15:57:04.222Z,23.50
2018-03-03T15:59:31.889Z,23.80
2018-03-03T16:01:59.482Z,20.40
2018-03-03T16:04:27.066Z,21.62
2018-03-03T16:06:54.681Z,23.92
2018-03-03T16:09:22.362Z,24.33
2018-03-03T16:11:49.976Z,23.17
2018-03-03T16:14:17.544Z,22.77
2018-03-03T16:16:45.182Z,22.00
2018-03-03T16:19:12.801Z,23.92
2018-03-03T16:21:40.391Z,23.45
2018-03-03T16:24:08.024Z,22.25
2018-03-03T16:26:35.820Z,19.95
2018-03-03T16:29:03.415Z,23.95
2018-03-03T16:31:34.381Z,24.33
2018-03-03T16:34:02.182Z,20.60
2018-03-03T16:36:29.756Z,23.87
2018-03-03T16:38:57.374Z,22.90
2018-03-03T16:41:24.976Z,23.25
2018-03-03T16:43:52.540Z,21.08
2018-03-03T16:46:20.123Z,22.40
2018-03-03T16:48:47.775Z,21.67
2018-03-03T16:51:15.725Z,22.92
2018-03-03T16:53:43.592Z,22.42
2018-03-03T16:56:11.218Z,23.15
2018-03-03T16:58:38.839Z,21.90
2018-03-03T17:01:06.392Z,20.52
2018-03-03T17:03:33.984Z,22.27
2018-03-03T17:06:01.540Z,22.52
2018-03-03T17:08:29.196Z,20.77
2018-03-03T17:10:56.780Z,19.17
2018-03-03T17:13:24.424Z,21.98
2018-03-03T17:15:52.017Z,22.10
2018-03-03T17:18:19.656Z,19.55
2018-03-03T17:20:47.481Z,21.83
2018-03-03T17:23:15.053Z,22.95
2018-03-03T17:25:42.683Z,20.45
2018-03-03T17:28:10.310Z,20.85
2018-03-03T17:30:37.866Z,20.40
2018-03-03T17:33:05.437Z,21.58
2018-03-03T17:35:33.039Z,21.90
2018-03-03T17:38:00.673Z,20.42
2018-03-03T17:40:28.259Z,19.98
2018-03-03T17:42:55.837Z,18.90
2018-03-03T17:45:23.425Z,21.27
2018-03-03T17:47:51.037Z,20.00
2018-03-03T17:50:18.683Z,22.02
2018-03-03T17:52:46.313Z,22.50
2018-03-03T17:55:14.166Z,20.75
2018-03-03T17:57:41.799Z,20.90
2018-03-03T18:00:09.397Z,21.08
2018-03-03T18:02:37.048Z,21.85
2018-03-03T18:05:05.094Z,20.98
2018-03-03T18:07:32.681Z,20.42
2018-03-03T18:10:00.314Z,21.15
2018-03-03T18:12:27.942Z,21.92
2018-03-03T18:14:55.510Z,19.33
2018-03-03T18:17:23.081Z,20.95
2018-03-03T18:19:50.719Z,21.10
2018-03-03T18:22:18.306Z,21.55
2018-03-03T18:24:45.897Z,21.60
2018-03-03T18:27:13.482Z,19.05
2018-03-03T18:29:41.398Z,20.92
2018-03-03T18:32:09.047Z,20.00
2018-03-03T18:34:36.933Z,19.17
2018-03-03T18:37:04.512Z,19.77
2018-03-03T18:39:32.126Z,18.52
2018-03-03T18:41:59.754Z,18.85
2018-03-03T18:44:27.365Z,20.55
2018-03-03T18:46:54.980Z,20.83
2018-03-03T18:49:22.576Z,19.67
2018-03-03T18:51:50.227Z,19.62
2018-03-03T18:54:17.826Z,18.45
2018-03-03T18:56:45.417Z,20.75
2018-03-03T18:59:13.054Z,17.52
2018-03-03T19:01:40.689Z,18.83
2018-03-03T19:04:08.307Z,19.83
2018-03-03T19:06:35.916Z,18.73
2018-03-03T19:09:03.591Z,19.58
2018-03-03T19:11:31.222Z,20.75
2018-03-03T19:13:58.840Z,18.73
2018-03-03T19:16:26.420Z,15.48
2018-03-03T19:18:54.060Z,19.75
2018-03-03T19:21:21.651Z,18.73
2018-03-03T19:23:49.252Z,21.12
2018-03-03T19:26:16.912Z,19.08
2018-03-03T19:28:44.510Z,19.15
2018-03-03T19:31:12.083Z,17.48
2018-03-03T19:33:39.727Z,21.12
2018-03-03T19:36:07.338Z,17.80
2018-03-03T19:38:34.928Z,20.15
2018-03-03T19:41:02.645Z,18.33
2018-03-03T19:43:30.236Z,16.12
2018-03-03T19:45:57.817Z,17.48
2018-03-03T19:48:25.491Z,18.23
2018-03-03T19:50:53.054Z,17.62
2018-03-03T19:53:20.639Z,18.05
2018-03-03T19:55:48.558Z,17.60
2018-03-03T19:58:16.429Z,18.52
2018-03-03T20:00:43.997Z,16.20
2018-03-03T20:03:11.688Z,17.52
2018-03-03T20:05:39.269Z,17.12
2018-03-03T20:08:06.830Z,15.00
2018-03-03T20:10:34.428Z,15.57
2018-03-03T20:13:02.013Z,14.80
2018-03-03T20:15:29.776Z,16.25
2018-03-03T20:17:57.385Z,15.75
2018-03-03T20:20:24.945Z,13.45
2018-03-03T20:22:52.555Z,15.73
2018-03-03T20:25:20.390Z,16.55
2018-03-03T20:27:47.970Z,16.25
2018-03-03T20:30:15.593Z,14.35
2018-03-03T20:32:43.232Z,13.65
2018-03-03T20:35:11.159Z,14.63
2018-03-03T20:37:38.874Z,15.75
2018-03-03T20:40:06.501Z,15.93
2018-03-03T20:42:34.165Z,14.32
2018-03-03T20:45:01.782Z,13.52
2018-03-03T20:47:29.387Z,15.00
2018-03-03T20:49:56.953Z,14.18
2018-03-03T20:52:24.597Z,14.20
2018-03-03T20:54:52.197Z,15.13
2018-03-03T20:57:19.772Z,15.30
2018-03-03T20:59:47.413Z,14.07
2018-03-03T21:02:14.985Z,14.18
2018-03-03T21:04:42.661Z,13.52
2018-03-03T21:07:10.312Z,13.55
2018-03-03T21:09:37.951Z,12.60
2018-03-03T21:12:06.118Z,14.32
2018-03-03T21:14:33.674Z,12.40
2018-03-03T21:17:01.225Z,13.98
2018-03-03T21:19:28.856Z,12.88
2018-03-03T21:21:56.503Z,15.60
2018-03-03T21:24:24.066Z,14.35
2018-03-03T21:26:51.701Z,9.63
2018-03-03T21:29:19.341Z,12.35
2018-03-03T21:31:47.125Z,12.50
2018-03-03T21:34:14.778Z,13.45
2018-03-03T21:36:44.199Z,13.48
2018-03-03T21:39:11.784Z,14.00
2018-03-03T21:41:39.533Z,13.43
2018-03-03T21:44:07.388Z,12.15
2018-03-03T21:46:35.479Z,14.48
2018-03-03T21:49:03.267Z,11.93
2018-03-03T21:51:30.966Z,13.57
2018-03-03T21:53:58.612Z,13.75
2018-03-03T21:56:26.193Z,13.73
2018-03-03T21:58:53.805Z,14.10
2018-03-03T22:01:21.690Z,14.02
2018-03-03T22:03:49.756Z,14.40
2018-03-03T22:06:17.439Z,14.65
2018-03-03T22:08:45.438Z,14.95
2018-03-03T22:11:13.031Z,15.02
2018-03-03T22:13:40.866Z,14.40
2018-03-03T22:16:08.462Z,14.10
2018-03-03T22:18:36.077Z,14.23
2018-03-03T22:21:04.013Z,14.25
2018-03-03T22:23:31.817Z,18.05
2018-03-03T22:25:59.486Z,16.55
2018-03-03T22:28:27.114Z,18.35
2018-03-03T22:30:54.790Z,17.62
2018-03-03T22:33:22.490Z,16.75
2018-03-03T22:35:50.219Z,19.45
2018-03-03T22:38:17.789Z,18.83
2018-03-03T22:40:45.358Z,18.12
2018-03-03T22:43:13.257Z,19.83
2018-03-03T22:45:40.876Z,19.85
2018-03-03T22:48:08.511Z,16.52
2018-03-03T22:50:36.097Z,16.73
2018-03-03T22:53:03.732Z,17.55
2018-03-03T22:55:31.395Z,17.83
2018-03-03T22:57:59.050Z,17.65
2018-03-03T23:00:26.835Z,16.83
2018-03-03T23:02:54.428Z,17.12
2018-03-03T23:05:22.255Z,18.67
2018-03-03T23:07:51.245Z,16.00
2018-03-03T23:10:18.884Z,15.73
2018-03-03T23:12:46.450Z,18.62
2018-03-03T23:15:14.096Z,18.85
2018-03-03T23:17:41.770Z,18.45
2018-03-03T23:20:09.455Z,18.40
2018-03-03T23:22:37.153Z,16.35
2018-03-03T23:25:04.740Z,18.95
2018-03-03T23:27:32.340Z,18.42
2018-03-03T23:29:59.972Z,16.50
2018-03-03T23:32:27.589Z,18.02
2018-03-03T23:34:55.461Z,17.37
2018-03-03T23:37:23.121Z,18.40
2018-03-03T23:39:50.703Z,17.23
2018-03-03T23:42:18.299Z,17.55
2018-03-03T23:44:45.996Z,17.73
2018-03-03T23:47:13.624Z,18.23
2018-03-03T23:49:41.221Z,17.42
2018-03-03T23:52:08.853Z,17.15
2018-03-03T23:54:36.449Z,16.98
2018-03-03T23:57:04.094Z,17.70
2018-03-03T23:59:32.049Z,16.92
